Time;durP1;ratioP1;P1;durP2;ratioP2;P2;SDS_P1;SDS_P2;PMS_P1;PMS_P2;Temp;Humidity;BMP_temperature;BMP_pressure;BME280_temperature;BME280_humidity;BME280_pressure;Samples;Min_cycle;Max_cycle;Signal;HPM_P1;HPM_P2
2022/09/30 00:02:02;;;;;;;12.63;6.65;;;;;;;7.34;100.00;100973.94;7375117;19;20018;-73
2022/09/30 00:04:32;;;;;;;11.95;6.13;;;;;;;7.33;100.00;100977.41;7374943;19;20015;-72
2022/09/30 00:07:05;;;;;;;12.05;7.38;;;;;;;7.33;100.00;100982.63;7371068;19;20399;-72
2022/09/30 00:09:37;;;;;;;13.48;7.28;;;;;;;7.33;100.00;100993.06;7372378;19;20018;-74
2022/09/30 00:12:07;;;;;;;13.73;6.82;;;;;;;7.35;100.00;100988.75;7375044;19;20144;-72
2022/09/30 00:14:36;;;;;;;11.02;6.65;;;;;;;7.33;100.00;100989.56;7374339;19;20007;-72
2022/09/30 00:17:06;;;;;;;11.43;6.55;;;;;;;7.32;100.00;100983.47;7376480;19;20007;-73
2022/09/30 00:19:36;;;;;;;11.73;6.47;;;;;;;7.33;100.00;100990.44;7372938;19;20010;-73
2022/09/30 00:22:08;;;;;;;10.48;6.53;;;;;;;7.32;100.00;100996.50;7371090;19;20013;-73
2022/09/30 00:24:38;;;;;;;14.13;7.20;;;;;;;7.34;100.00;100992.22;7372417;19;20406;-72
2022/09/30 00:27:08;;;;;;;13.60;7.25;;;;;;;7.36;100.00;101000.97;7374894;19;20015;-73
2022/09/30 00:29:38;;;;;;;12.18;7.30;;;;;;;7.39;100.00;100989.72;7374765;19;20017;-73
2022/09/30 00:32:08;;;;;;;16.67;7.43;;;;;;;7.38;100.00;100990.56;7376988;19;20021;-72
2022/09/30 00:34:37;;;;;;;13.85;7.15;;;;;;;7.36;100.00;100987.91;7375674;19;20018;-73
2022/09/30 00:37:13;;;;;;;14.00;7.00;;;;;;;7.35;100.00;100980.94;7375443;19;20062;-73
2022/09/30 00:39:43;;;;;;;13.32;6.50;;;;;;;7.35;100.00;100986.16;7372216;19;20555;-72
2022/09/30 00:42:18;;;;;;;13.02;7.30;;;;;;;7.39;100.00;100985.41;7376296;19;20006;-72
2022/09/30 00:44:54;;;;;;;13.25;7.35;;;;;;;7.35;100.00;100983.53;7375975;19;20102;-72
2022/09/30 00:47:37;;;;;;;14.45;8.30;;;;;;;7.31;100.00;100976.47;7374705;19;20081;-72
2022/09/30 00:50:15;;;;;;;12.20;6.55;;;;;;;7.30;100.00;100979.91;7375986;19;20577;-73
2022/09/30 00:52:53;;;;;;;11.70;6.20;;;;;;;7.30;100.00;100977.31;7372318;19;20075;-73
2022/09/30 00:55:33;;;;;;;13.73;6.65;;;;;;;7.30;100.00;100986.88;7372991;19;20011;-72
2022/09/30 00:58:05;;;;;;;15.10;7.65;;;;;;;7.28;100.00;100986.81;7371848;19;20548;-72
2022/09/30 01:00:35;;;;;;;11.32;6.03;;;;;;;7.25;100.00;100984.16;7371509;19;20017;-72
2022/09/30 01:03:06;;;;;;;10.48;5.95;;;;;;;7.22;100.00;100989.28;7372900;19;20553;-72
2022/09/30 01:05:37;;;;;;;11.90;6.32;;;;;;;7.22;100.00;100989.28;7367908;19;20049;-72
2022/09/30 01:08:10;;;;;;;13.13;7.03;;;;;;;7.24;100.00;100985.00;7373462;19;20011;-74
2022/09/30 01:10:40;;;;;;;11.75;6.35;;;;;;;7.23;100.00;100978.00;7371445;19;20029;-73
2022/09/30 01:13:09;;;;;;;10.85;6.60;;;;;;;7.18;100.00;100974.38;7367073;19;20013;-73
2022/09/30 01:16:17;;;;;;;12.02;6.40;;;;;;;7.11;100.00;100975.03;7371910;19;20491;-69
2022/09/30 01:19:03;;;;;;;12.95;6.60;;;;;;;7.05;100.00;100975.75;7374290;19;20098;-69
2022/09/30 01:22:11;;;;;;;11.77;6.28;;;;;;;7.00;100.00;100982.56;7372465;19;20014;-69
2022/09/30 01:25:14;;;;;;;11.13;6.07;;;;;;;6.93;100.00;100982.31;7370368;19;20018;-73
2022/09/30 01:27:51;;;;;;;13.05;6.78;;;;;;;6.86;100.00;100989.97;7370809;19;20011;-74
2022/09/30 01:30:24;;;;;;;10.55;6.50;;;;;;;6.82;100.00;100987.22;7370063;19;20024;-73
2022/09/30 01:33:11;;;;;;;11.77;6.85;;;;;;;6.75;100.00;100996.56;7369763;19;20081;-72
2022/09/30 01:36:04;;;;;;;10.48;6.13;;;;;;;6.71;100.00;100991.19;7371148;19;20010;-72
2022/09/30 01:38:41;;;;;;;;;;;;;;;6.70;100.00;100986.81;7370087;19;20013;-68
2022/09/30 01:41:17;;;;;;;12.93;5.55;;;;;;;6.67;100.00;100981.53;7372651;19;19915;-68
2022/09/30 01:43:57;;;;;;;11.27;5.43;;;;;;;6.65;100.00;100989.28;7368442;19;20099;-68
2022/09/30 01:46:36;;;;;;;12.75;7.25;;;;;;;6.65;100.00;100993.63;7369861;19;20274;-68
2022/09/30 01:49:17;;;;;;;10.45;6.90;;;;;;;6.60;100.00;101001.28;7362350;19;20046;-68
2022/09/30 01:51:53;;;;;;;11.00;6.53;;;;;;;6.55;100.00;100995.03;7365840;19;20015;-68
2022/09/30 01:54:32;;;;;;;13.60;6.35;;;;;;;6.50;100.00;100992.28;7358048;19;20018;-68
2022/09/30 01:57:09;;;;;;;10.90;5.68;;;;;;;6.42;100.00;100977.25;7365451;19;20084;-68
2022/09/30 01:59:45;;;;;;;13.70;6.80;;;;;;;6.44;100.00;100980.78;7372025;19;20019;-68
2022/09/30 02:02:20;;;;;;;10.38;5.80;;;;;;;6.44;100.00;100978.19;7367946;19;20036;-69
2022/09/30 02:04:58;;;;;;;11.68;5.70;;;;;;;6.44;100.00;100983.41;7369307;19;20011;-68
2022/09/30 02:07:33;;;;;;;12.98;6.63;;;;;;;6.39;100.00;100980.66;7372707;19;20017;-72
2022/09/30 02:10:08;;;;;;;10.05;6.47;;;;;;;6.35;100.00;100972.69;7372586;19;20018;-72
2022/09/30 02:12:54;;;;;;;12.02;6.03;;;;;;;6.30;100.00;100971.66;7368799;19;20007;-72
2022/09/30 02:15:28;;;;;;;11.80;6.50;;;;;;;6.24;100.00;100969.72;7373529;19;20010;-72
2022/09/30 02:18:03;;;;;;;10.68;5.75;;;;;;;6.20;100.00;100963.56;7372193;19;20039;-68
2022/09/30 02:20:40;;;;;;;10.68;5.65;;;;;;;6.19;100.00;100969.59;7372325;19;20015;-68
2022/09/30 02:23:16;;;;;;;12.32;6.40;;;;;;;6.15;100.00;100978.16;7370779;19;20030;-72
2022/09/30 02:25:50;;;;;;;10.32;5.97;;;;;;;6.12;100.00;100998.00;7372855;19;20011;-71
2022/09/30 02:28:26;;;;;;;12.88;6.00;;;;;;;6.09;100.00;100995.28;7362331;19;20014;-72
2022/09/30 02:31:01;;;;;;;12.15;6.45;;;;;;;6.04;100.00;100996.84;7374191;19;20011;-71
2022/09/30 02:33:36;;;;;;;11.73;6.07;;;;;;;6.00;100.00;100995.88;7373764;19;20021;-72
2022/09/30 02:36:17;;;;;;;13.85;6.75;;;;;;;5.98;100.00;101002.72;7373901;19;20014;-72
2022/09/30 02:38:52;;;;;;;10.73;6.70;;;;;;;5.93;100.00;101004.28;7371381;19;20103;-72
2022/09/30 02:41:27;;;;;;;10.15;5.65;;;;;;;5.90;100.00;101006.78;7373280;19;20017;-72
2022/09/30 02:43:58;;;;;;;9.75;5.25;;;;;;;5.87;100.00;101004.94;7368889;19;20010;-72
2022/09/30 02:46:41;;;;;;;11.45;5.65;;;;;;;5.83;100.00;101003.06;7369473;19;20048;-72
2022/09/30 02:49:23;;;;;;;13.48;6.13;;;;;;;5.80;100.00;101002.06;7372938;19;20017;-72
2022/09/30 02:52:10;;;;;;;12.55;6.78;;;;;;;5.79;100.00;101006.38;7373208;19;20046;-73
2022/09/30 02:54:50;;;;;;;13.25;6.95;;;;;;;5.74;100.00;101004.44;7369916;19;20542;-72
2022/09/30 02:57:28;;;;;;;10.27;5.65;;;;;;;5.71;100.00;101002.63;7370746;19;20447;-68
2022/09/30 02:59:58;;;;;;;11.18;6.22;;;;;;;5.70;100.00;101005.19;7370751;19;20015;-68
2022/09/30 03:02:33;;;;;;;10.63;5.65;;;;;;;5.69;100.00;101003.41;7363587;19;20044;-68
2022/09/30 03:05:06;;;;;;;12.50;6.22;;;;;;;5.66;100.00;101004.19;7369124;19;20010;-68
2022/09/30 03:07:39;;;;;;;12.05;6.03;;;;;;;5.65;100.00;101001.53;7369562;19;20011;-68
2022/09/30 03:10:15;;;;;;;13.90;6.63;;;;;;;5.63;100.00;100998.88;7365246;19;20077;-68
2022/09/30 03:13:04;;;;;;;14.27;7.85;;;;;;;5.64;100.00;101002.34;7369742;19;20018;-68
2022/09/30 03:15:45;;;;;;;17.38;7.07;;;;;;;5.63;100.00;101004.06;7365802;19;20010;-68
2022/09/30 03:18:50;;;;;;;11.40;6.05;;;;;;;5.69;100.00;101012.09;7367952;19;20007;-68
2022/09/30 03:21:35;;;;;;;12.85;7.05;;;;;;;5.64;100.00;101002.34;7367019;19;20036;-68
2022/09/30 03:24:36;;;;;;;11.73;6.88;;;;;;;5.65;100.00;101009.31;7368368;19;20038;-68
2022/09/30 03:27:21;;;;;;;14.50;7.45;;;;;;;5.61;100.00;101004.84;7370336;19;22660;-68
2022/09/30 03:30:04;;;;;;;12.38;6.40;;;;;;;5.57;100.00;101011.66;7371418;19;20002;-68
2022/09/30 03:32:50;;;;;;;12.52;6.80;;;;;;;5.55;100.00;101021.13;7369321;19;20006;-68
2022/09/30 03:35:30;;;;;;;12.25;6.68;;;;;;;5.53;100.00;101033.19;7370102;19;20473;-67
2022/09/30 03:38:06;;;;;;;12.30;6.88;;;;;;;5.52;100.00;101032.28;7364970;19;20102;-70
2022/09/30 03:40:48;;;;;;;11.98;6.57;;;;;;;5.53;100.00;101033.19;7367785;19;20081;-69
2022/09/30 03:43:27;;;;;;;12.52;6.93;;;;;;;5.51;100.00;101034.84;7368156;19;20287;-69
2022/09/30 03:46:05;;;;;;;14.02;7.38;;;;;;;5.49;100.00;101042.59;7367794;19;20010;-69
2022/09/30 03:48:40;;;;;;;12.55;6.70;;;;;;;5.45;100.00;101039.81;7369149;19;20070;-68
2022/09/30 03:51:11;;;;;;;13.65;6.57;;;;;;;5.42;100.00;101040.59;7366086;19;20006;-68
2022/09/30 03:53:42;;;;;;;12.05;6.47;;;;;;;5.43;100.00;101039.75;7365073;19;20018;-68
2022/09/30 03:56:16;;;;;;;14.02;7.32;;;;;;;5.49;100.00;101039.09;7370284;19;20006;-68
2022/09/30 03:58:47;;;;;;;13.95;7.55;;;;;;;5.47;100.00;101044.25;7366099;19;20010;-67
2022/09/30 04:01:21;;;;;;;12.82;6.93;;;;;;;5.50;100.00;101044.38;7367913;19;20009;-67
2022/09/30 04:03:52;;;;;;;13.90;7.60;;;;;;;5.51;100.00;101040.94;7368396;19;20109;-70
2022/09/30 04:06:26;;;;;;;15.27;8.00;;;;;;;5.51;100.00;101040.94;7367584;19;20110;-67
2022/09/30 04:08:56;;;;;;;13.18;7.30;;;;;;;5.54;100.00;101037.56;7370260;19;20250;-69
2022/09/30 04:11:34;;;;;;;14.13;7.05;;;;;;;5.52;100.00;101047.03;7368352;19;20002;-67
2022/09/30 04:14:05;;;;;;;15.63;7.65;;;;;;;5.54;100.00;101040.16;7366444;19;20028;-68
2022/09/30 04:16:35;;;;;;;13.75;8.75;;;;;;;5.55;100.00;101050.63;7365270;19;20027;-71
2022/09/30 04:19:05;;;;;;;17.58;9.77;;;;;;;5.62;100.00;101056.94;7364876;19;20125;-72
2022/09/30 04:21:34;;;;;;;14.73;8.57;;;;;;;5.63;100.00;101055.22;7368274;19;20035;-71
2022/09/30 04:24:04;;;;;;;15.75;8.50;;;;;;;5.66;100.00;101061.41;7366609;19;20014;-71
2022/09/30 04:26:37;;;;;;;17.45;9.38;;;;;;;5.69;100.00;101055.44;7367283;19;20119;-72
2022/09/30 04:29:07;;;;;;;19.27;10.52;;;;;;;5.68;100.00;101061.47;7369445;19;20011;-72
2022/09/30 04:31:36;;;;;;;19.70;10.10;;;;;;;5.66;100.00;101057.94;7366826;19;20010;-72
2022/09/30 04:34:06;;;;;;;19.27;9.38;;;;;;;5.65;100.00;101067.47;7364927;19;20038;-72
2022/09/30 04:36:36;;;;;;;20.95;11.50;;;;;;;5.69;100.00;101068.47;7365773;19;20030;-72
2022/09/30 04:39:07;;;;;;;17.75;10.38;;;;;;;5.65;100.00;101066.56;7367227;19;20048;-73
2022/09/30 04:41:39;;;;;;;16.67;9.60;;;;;;;5.63;100.00;101063.03;7368188;19;20014;-71
2022/09/30 04:44:09;;;;;;;19.83;10.57;;;;;;;5.60;100.00;101063.81;7367739;19;20086;-72
2022/09/30 04:46:39;;;;;;;17.55;9.85;;;;;;;5.62;100.00;101056.06;7366513;19;20426;-71
2022/09/30 04:49:09;;;;;;;17.30;9.77;;;;;;;5.61;100.00;101059.47;7368462;19;20207;-73
2022/09/30 04:51:42;;;;;;;17.48;10.63;;;;;;;5.59;100.00;101062.91;7367228;19;20324;-72
2022/09/30 04:54:12;;;;;;;16.48;10.60;;;;;;;5.57;100.00;101063.69;7364569;19;20021;-71
2022/09/30 04:56:44;;;;;;;26.92;14.65;;;;;;;5.65;100.00;101064.84;7369522;19;20016;-72
2022/09/30 04:59:14;;;;;;;24.58;12.90;;;;;;;5.67;100.00;101073.59;7366377;19;20010;-71
2022/09/30 05:01:44;;;;;;;25.40;14.00;;;;;;;5.75;100.00;101076.50;7366392;19;20014;-68
2022/09/30 05:04:15;;;;;;;24.70;14.13;;;;;;;5.85;100.00;101073.38;7365510;19;20014;-68
2022/09/30 05:06:50;;;;;;;24.05;14.43;;;;;;;5.87;100.00;101075.22;7364940;19;20235;-67
2022/09/30 05:09:21;;;;;;;26.77;14.43;;;;;;;5.88;100.00;101081.31;7363330;19;20029;-67
2022/09/30 05:11:56;;;;;;;21.35;12.15;;;;;;;5.78;100.00;101087.91;7367549;19;20014;-68
2022/09/30 05:14:29;;;;;;;25.90;12.43;;;;;;;5.77;100.00;101090.44;7366067;19;20048;-68
2022/09/30 05:17:03;;;;;;;24.35;12.98;;;;;;;5.71;100.00;101083.28;7364876;19;20018;-70
2022/09/30 05:19:32;;;;;;;18.17;11.93;;;;;;;5.68;100.00;101090.09;7364708;19;20014;-68
2022/09/30 05:22:03;;;;;;;21.67;12.05;;;;;;;5.65;100.00;101090.00;7362163;19;21181;-72
2022/09/30 05:24:33;;;;;;;24.55;12.38;;;;;;;5.66;100.00;101089.16;7365122;19;20039;-72
2022/09/30 05:27:06;;;;;;;23.15;12.98;;;;;;;5.73;100.00;101084.25;7365332;19;20010;-72
2022/09/30 05:29:36;;;;;;;26.80;14.30;;;;;;;5.74;100.00;101088.59;7367151;19;20407;-72
2022/09/30 05:32:06;;;;;;;23.75;13.13;;;;;;;5.77;100.00;101090.44;7366930;19;20081;-72
2022/09/30 05:34:37;;;;;;;36.90;16.33;;;;;;;5.78;100.00;101092.22;7371190;19;20560;-73
2022/09/30 05:37:07;;;;;;;30.33;15.25;;;;;;;5.72;100.00;101087.66;7370965;19;20018;-71
2022/09/30 05:39:37;;;;;;;26.35;14.23;;;;;;;5.72;100.00;101092.00;7371728;19;20014;-72
2022/09/30 05:42:10;;;;;;;22.17;12.90;;;;;;;5.73;100.00;101078.16;7370095;19;20487;-75
2022/09/30 05:44:42;;;;;;;28.25;13.88;;;;;;;5.76;100.00;101092.16;7368822;19;20010;-72
2022/09/30 05:47:12;;;;;;;26.58;14.60;;;;;;;5.85;100.00;101078.59;7370576;19;20040;-71
2022/09/30 05:49:43;;;;;;;27.35;15.35;;;;;;;5.86;100.00;101089.06;7368755;19;20508;-72
2022/09/30 05:52:13;;;;;;;30.48;16.63;;;;;;;5.89;100.00;101081.41;7372399;19;20010;-72
2022/09/30 05:54:43;;;;;;;34.67;17.02;;;;;;;5.89;100.00;101085.72;7371451;19;20556;-72
2022/09/30 05:57:16;;;;;;;31.70;16.63;;;;;;;5.87;100.00;101093.44;7370969;19;20013;-71
2022/09/30 05:59:46;;;;;;;29.42;16.05;;;;;;;5.84;100.00;101089.84;7374545;19;20011;-72
2022/09/30 06:02:16;;;;;;;31.30;18.17;;;;;;;5.86;100.00;101088.16;7371858;19;20006;-72
2022/09/30 06:04:46;;;;;;;26.50;15.45;;;;;;;5.88;100.00;101091.72;7372969;19;20026;-71
2022/09/30 06:07:15;;;;;;;29.92;16.80;;;;;;;6.00;100.00;101088.69;7370547;19;20029;-72
2022/09/30 06:09:45;;;;;;;31.35;17.60;;;;;;;6.08;100.00;101088.16;7368540;19;20006;-73
2022/09/30 06:12:18;;;;;;;33.85;17.35;;;;;;;6.21;100.00;101095.56;7369758;19;21636;-68
2022/09/30 06:14:48;;;;;;;27.73;15.50;;;;;;;6.31;100.00;101098.44;7369539;19;20006;-67
2022/09/30 06:17:19;;;;;;;32.20;17.58;;;;;;;6.43;100.00;101088.44;7369472;19;20010;-68
2022/09/30 06:19:49;;;;;;;44.67;20.60;;;;;;;6.88;100.00;101095.16;7372452;19;20082;-70
2022/09/30 06:22:21;;;;;;;40.58;21.60;;;;;;;7.04;100.00;101085.22;7369198;19;20093;-68
2022/09/30 06:24:51;;;;;;;39.67;20.27;;;;;;;7.15;100.00;101089.06;7371830;19;20462;-68
2022/09/30 06:27:27;;;;;;;41.25;21.73;;;;;;;7.17;100.00;101093.47;7370325;19;20095;-68
2022/09/30 06:29:56;;;;;;;38.42;19.67;;;;;;;7.19;100.00;101093.53;7372003;19;20020;-69
2022/09/30 06:32:27;;;;;;;36.33;19.40;;;;;;;7.18;100.00;101103.06;7361582;19;20007;-68
2022/09/30 06:34:57;;;;;;;36.20;19.63;;;;;;;7.32;100.00;101110.41;7370185;19;20565;-72
2022/09/30 06:37:27;;;;;;;38.30;20.00;;;;;;;7.51;100.00;101107.53;7373308;19;20015;-68
2022/09/30 06:39:57;;;;;;;39.88;20.33;;;;;;;7.62;100.00;101106.13;7375466;19;20066;-68
2022/09/30 06:42:30;;;;;;;39.00;21.05;;;;;;;7.82;100.00;101118.03;7369998;19;20283;-68
2022/09/30 06:45:00;;;;;;;39.73;20.80;;;;;;;7.87;100.00;101112.94;7369504;19;20021;-68
2022/09/30 06:47:32;;;;;;;44.67;22.70;;;;;;;8.20;100.00;101110.38;7366171;19;20474;-68
2022/09/30 06:50:02;;;;;;;42.83;21.70;;;;;;;8.40;100.00;101108.28;7369183;19;20006;-68
2022/09/30 06:52:32;;;;;;;41.95;21.42;;;;;;;8.58;100.00;101105.28;7364249;19;20014;-68
2022/09/30 06:55:04;;;;;;;43.58;23.48;;;;;;;8.76;100.00;101106.63;7363766;19;20043;-68
2022/09/30 06:57:37;;;;;;;41.33;21.17;;;;;;;8.78;100.00;101098.81;7365809;19;20013;-68
2022/09/30 07:00:09;;;;;;;42.40;21.35;;;;;;;8.87;100.00;101100.78;7371549;19;20108;-68
2022/09/30 07:02:39;;;;;;;39.70;21.05;;;;;;;8.85;100.00;101104.22;7366529;19;20014;-69
2022/09/30 07:05:11;;;;;;;39.95;20.85;;;;;;;8.92;100.00;101102.66;7365797;19;20021;-68
2022/09/30 07:07:41;;;;;;;38.38;19.00;;;;;;;9.01;100.00;101107.22;7365096;19;20011;-68
2022/09/30 07:10:12;;;;;;;36.65;19.25;;;;;;;9.07;100.00;101108.25;7368137;19;20010;-68
2022/09/30 07:12:44;;;;;;;40.60;20.42;;;;;;;9.17;100.00;101098.88;7372557;19;20011;-68
2022/09/30 07:15:15;;;;;;;34.45;17.67;;;;;;;9.22;100.00;101101.59;7370823;19;20519;-68
2022/09/30 07:17:45;;;;;;;33.70;19.25;;;;;;;9.31;100.00;101105.31;7373158;19;20010;-69
2022/09/30 07:20:15;;;;;;;32.28;17.83;;;;;;;9.36;100.00;101102.78;7374101;19;20026;-68
2022/09/30 07:22:46;;;;;;;37.63;18.92;;;;;;;9.46;100.00;101095.16;7372835;19;20017;-69
2022/09/30 07:25:16;;;;;;;33.53;17.02;;;;;;;9.55;100.00;101096.19;7374553;19;20656;-70
2022/09/30 07:27:49;;;;;;;31.23;15.63;;;;;;;9.64;100.00;101088.53;7375230;19;20018;-72
2022/09/30 07:30:19;;;;;;;32.60;17.20;;;;;;;9.81;100.00;101092.38;7372948;19;20163;-71
2022/09/30 07:32:55;;;;;;;29.77;14.57;;;;;;;9.97;100.00;101078.75;7372746;19;20025;-72
2022/09/30 07:35:25;;;;;;;29.92;14.55;;;;;;;10.21;100.00;101082.72;7373116;19;20058;-70
2022/09/30 07:37:55;;;;;;;26.60;14.00;;;;;;;10.40;100.00;101090.06;7369925;19;20022;-71
2022/09/30 07:40:30;;;;;;;21.83;12.68;;;;;;;10.64;100.00;101073.84;7369824;19;20014;-72
2022/09/30 07:43:03;;;;;;;19.13;11.35;;;;;;;10.88;100.00;101086.47;7369321;19;20569;-72
2022/09/30 07:45:33;;;;;;;21.15;11.60;;;;;;;11.09;100.00;101082.44;7367467;19;20062;-72
2022/09/30 07:48:37;;;;;;;20.15;10.35;;;;;;;11.37;100.00;101078.47;7371713;19;20010;-68
2022/09/30 07:50:56;;;;;;;16.63;9.35;;;;;;;11.67;100.00;101082.34;7365724;19;20042;-68
2022/09/30 07:53:25;;;;;;;17.50;9.45;;;;;;;11.81;100.00;101078.16;7366845;19;20488;-69
2022/09/30 07:55:55;;;;;;;16.70;8.23;;;;;;;12.07;100.00;101079.34;7368371;19;20376;-69
2022/09/30 07:58:27;;;;;;;15.88;8.55;;;;;;;12.21;100.00;101078.63;7366929;19;20014;-68
2022/09/30 08:00:59;;;;;;;15.65;8.93;;;;;;;12.40;100.00;101077.94;7370878;19;20550;-70
2022/09/30 08:03:31;;;;;;;15.35;7.03;;;;;;;12.38;100.00;101080.56;7365846;19;20014;-70
2022/09/30 08:06:07;;;;;;;12.70;7.10;;;;;;;12.61;100.00;101083.38;7365386;19;20010;-68
2022/09/30 08:08:37;;;;;;;12.95;6.55;;;;;;;12.72;100.00;101083.47;7367872;19;20011;-68
2022/09/30 08:11:07;;;;;;;12.98;6.93;;;;;;;12.87;100.00;101086.22;7366512;19;20308;-70
2022/09/30 08:13:40;;;;;;;16.75;7.00;;;;;;;13.03;100.00;101093.34;7368252;19;20032;-68
2022/09/30 08:16:10;;;;;;;10.70;6.18;;;;;;;13.12;100.00;101081.13;7364764;19;20009;-68
2022/09/30 08:18:40;;;;;;;11.57;5.68;;;;;;;13.17;100.00;101080.31;7366212;19;20006;-69
2022/09/30 08:21:09;;;;;;;8.90;4.90;;;;;;;13.24;100.00;101084.75;7367582;19;20018;-67
2022/09/30 08:23:43;;;;;;;12.68;6.05;;;;;;;13.41;100.00;101088.38;7365609;19;20010;-68
2022/09/30 08:26:15;;;;;;;10.80;5.70;;;;;;;13.52;100.00;101083.13;7369834;19;20053;-68
2022/09/30 08:28:48;;;;;;;10.73;5.63;;;;;;;13.63;100.00;101077.91;7367849;19;20090;-69
2022/09/30 08:31:20;;;;;;;11.23;5.68;;;;;;;13.69;100.00;101075.31;7363181;19;20022;-69
2022/09/30 08:33:51;;;;;;;12.65;6.47;;;;;;;13.77;100.00;101077.97;7370655;19;20007;-69
2022/09/30 08:36:22;;;;;;;10.85;4.78;;;;;;;13.95;100.00;101078.03;7374413;19;20006;-68
2022/09/30 08:38:52;;;;;;;11.07;5.03;;;;;;;14.05;100.00;101080.72;7373516;19;20598;-69
2022/09/30 08:41:54;;;;;;;10.55;5.07;;;;;;;14.12;100.00;101080.72;7367040;19;20371;-70
2022/09/30 08:44:42;;;;;;;11.93;4.70;;;;;;;14.07;100.00;101084.22;7367460;19;20011;-70
2022/09/30 08:47:36;;;;;;;9.75;4.35;;;;;;;14.30;100.00;101091.31;7365937;19;20021;-70
2022/09/30 08:50:17;;;;;;;8.77;4.60;;;;;;;14.34;100.00;101087.81;7368773;19;20018;-71
2022/09/30 08:52:51;;;;;;;7.15;4.53;;;;;;;14.51;100.00;101087.88;7364467;19;20014;-70
2022/09/30 08:55:24;;;;;;;8.40;3.50;;;;;;;14.56;100.00;101073.78;7368935;19;20014;-70
2022/09/30 08:57:58;;;;;;;7.10;3.80;;;;;;;14.69;100.00;101074.66;7369032;19;20014;-71
2022/09/30 09:00:30;;;;;;;7.90;3.20;;;;;;;14.86;100.00;101079.94;7368680;19;20014;-70
2022/09/30 09:03:02;;;;;;;5.82;3.17;;;;;;;14.89;100.00;101077.28;7364042;19;20014;-71
2022/09/30 09:05:45;;;;;;;7.25;2.75;;;;;;;14.90;100.00;101079.06;7362964;19;20014;-71
2022/09/30 09:08:29;;;;;;;7.80;2.83;;;;;;;15.01;100.00;101086.09;7366778;19;20007;-71
2022/09/30 09:11:08;;;;;;;6.13;2.78;;;;;;;15.07;100.00;101092.25;7364509;19;21268;-71
2022/09/30 09:13:51;;;;;;;5.55;2.30;;;;;;;15.17;100.00;101086.94;7365128;19;20578;-72
2022/09/30 09:16:33;;;;;;;4.22;2.38;;;;;;;15.23;100.00;101084.31;7365199;19;20021;-71
2022/09/30 09:19:10;;;;;;;4.43;2.50;;;;;;;15.23;100.00;101089.59;7367454;19;20014;-71
2022/09/30 09:21:53;;;;;;;4.28;2.40;;;;;;;15.37;100.00;101084.28;7366286;19;20017;-72
2022/09/30 09:24:26;;;;;;;4.55;2.30;;;;;;;15.45;100.00;101090.41;7364612;19;20009;-71
2022/09/30 09:26:58;;;;;;;5.28;2.75;;;;;;;15.57;100.00;101086.91;7364113;19;20010;-71
2022/09/30 09:29:44;;;;;;;6.40;2.80;;;;;;;15.65;100.00;101093.00;7365894;19;20036;-71
2022/09/30 09:32:19;;;;;;;3.90;2.28;;;;;;;15.68;100.00;101090.34;7362715;19;20003;-72
2022/09/30 09:34:54;;;;;;;4.47;2.60;;;;;;;15.58;100.00;101097.47;7364523;19;21182;-71
2022/09/30 09:40:19;;;;;;;5.43;2.58;;;;;;;15.82;100.00;101092.94;7366219;19;20012;-72
2022/09/30 09:43:05;;;;;;;5.22;2.75;;;;;;;15.96;100.00;101093.75;7365438;19;20022;-71
2022/09/30 09:45:41;;;;;;;6.43;3.08;;;;;;;15.92;100.00;101090.25;7368679;19;20015;-71
2022/09/30 09:48:15;;;;;;;7.72;3.00;;;;;;;15.89;100.00;101087.63;7366787;19;20357;-71
2022/09/30 09:50:57;;;;;;;7.70;3.15;;;;;;;15.96;100.00;101092.00;7366509;19;20968;-71
2022/09/30 09:53:44;;;;;;;6.50;2.90;;;;;;;16.21;100.00;101090.09;7364076;19;20364;-71
2022/09/30 09:56:19;;;;;;;7.93;3.63;;;;;;;16.19;100.00;101091.88;7366204;19;20011;-71
2022/09/30 09:59:09;;;;;;;9.45;3.08;;;;;;;16.19;100.00;101086.59;7365936;19;20060;-72
2022/09/30 10:01:41;;;;;;;4.82;2.70;;;;;;;16.55;100.00;101081.94;7368469;19;20010;-72
2022/09/30 10:04:18;;;;;;;7.25;3.17;;;;;;;16.44;100.00;101089.97;7366489;19;20006;-72
2022/09/30 10:06:54;;;;;;;7.75;3.15;;;;;;;16.32;100.00;101087.38;7366166;19;20424;-71
2022/09/30 10:09:27;;;;;;;7.13;3.13;;;;;;;16.67;100.00;101087.16;7366821;19;20007;-71
2022/09/30 10:12:28;;;;;;;5.97;2.88;;;;;;;16.85;100.00;101086.13;7366807;19;20062;-71
2022/09/30 10:15:02;;;;;;;4.80;2.63;;;;;;;16.48;100.00;101078.47;7366105;19;20014;-70
2022/09/30 10:17:33;;;;;;;4.18;2.45;;;;;;;16.73;100.00;101080.91;7371145;19;20451;-71
2022/09/30 10:20:10;;;;;;;3.88;2.58;;;;;;;16.94;100.00;101083.38;7377814;19;20114;-71
2022/09/30 10:22:40;;;;;;;4.15;2.53;;;;;;;17.13;100.00;101082.31;7377392;19;20039;-71
2022/09/30 10:25:20;;;;;;;7.28;3.00;;;;;;;16.81;100.00;101087.03;7372804;19;20020;-71
2022/09/30 10:27:53;;;;;;;5.78;2.67;;;;;;;16.45;100.00;101091.72;7370103;19;20538;-71
2022/09/30 10:30:37;;;;;;;3.63;2.20;;;;;;;16.51;100.00;101088.16;7368280;19;20021;-72
2022/09/30 10:33:20;;;;;;;5.80;2.40;;;;;;;16.36;100.00;101083.84;7371467;19;20078;-72
2022/09/30 10:35:57;;;;;;;4.30;2.28;;;;;;;16.30;100.00;101083.88;7371557;19;20131;-72
2022/09/30 10:38:30;;;;;;;6.32;2.55;;;;;;;16.61;100.00;101088.06;7368733;19;20014;-71
2022/09/30 10:41:01;;;;;;;5.68;2.25;;;;;;;16.40;100.00;101080.28;7376743;19;20011;-71
2022/09/30 10:43:35;;;;;;;3.88;2.28;;;;;;;16.39;100.00;101089.09;7378759;19;20018;-71
2022/09/30 10:46:07;;;;;;;4.72;2.17;;;;;;;16.12;100.00;101089.28;7380334;19;20605;-71
2022/09/30 10:48:57;;;;;;;3.05;1.98;;;;;;;16.17;100.00;101077.78;7377205;19;20017;-71
2022/09/30 10:51:35;;;;;;;;;;;;;;;16.23;100.00;101082.16;7372908;19;20038;-72
2022/09/30 10:54:07;;;;;;;6.72;2.72;;;;;;;16.01;100.00;101079.63;7369554;19;19940;-72
2022/09/30 10:56:43;;;;;;;6.82;2.60;;;;;;;16.00;100.00;101076.97;7370284;19;20007;-72
2022/09/30 10:59:31;;;;;;;5.32;2.90;;;;;;;16.14;100.00;101085.72;7371717;19;20006;-72
2022/09/30 11:02:15;;;;;;;6.75;3.08;;;;;;;16.18;100.00;101076.88;7369292;19;20502;-71
2022/09/30 11:04:48;;;;;;;;;;;;;;;16.08;100.00;101077.81;7372728;19;20006;-72
2022/09/30 11:07:29;;;;;;;6.75;3.25;;;;;;;16.13;100.00;101083.97;7372491;19;19994;-71
2022/09/30 11:10:04;;;;;;;7.57;4.45;;;;;;;15.90;100.00;101073.50;7374663;19;20489;-72
2022/09/30 11:12:42;;;;;;;7.88;4.05;;;;;;;16.20;100.00;101072.47;7377645;19;20010;-72
2022/09/30 11:15:21;;;;;;;6.60;3.70;;;;;;;16.62;100.00;101067.75;7373705;19;20491;-71
2022/09/30 11:17:57;;;;;;;7.70;4.28;;;;;;;16.87;100.00;101071.09;7375613;19;20656;-71
2022/09/30 11:20:32;;;;;;;8.70;4.68;;;;;;;16.85;100.00;101063.16;7376721;19;20011;-72
2022/09/30 11:23:14;;;;;;;8.27;4.13;;;;;;;17.19;100.00;101061.06;7373799;19;20021;-72
2022/09/30 11:25:52;;;;;;;6.03;3.30;;;;;;;17.36;100.00;101060.88;7375837;19;20018;-72
2022/09/30 11:28:40;;;;;;;8.38;4.63;;;;;;;17.26;100.00;101064.53;7368208;19;20013;-72
2022/09/30 11:31:21;;;;;;;7.88;3.80;;;;;;;16.94;100.00;101054.25;7368590;19;20015;-72
2022/09/30 11:34:06;;;;;;;12.90;4.50;;;;;;;16.73;100.00;101051.78;7364580;19;20588;-72
2022/09/30 11:36:43;;;;;;;7.78;4.30;;;;;;;16.53;100.00;101052.81;7376609;19;20011;-71
2022/09/30 11:39:40;;;;;;;9.18;4.18;;;;;;;16.80;100.00;101049.06;7372503;19;20043;-72
2022/09/30 11:42:19;;;;;;;9.55;4.30;;;;;;;17.15;100.00;101040.78;7371761;19;20122;-71
2022/09/30 11:44:55;;;;;;;8.50;4.50;;;;;;;17.00;100.00;101040.94;7372051;19;20615;-71
2022/09/30 11:47:43;;;;;;;9.45;4.57;;;;;;;16.79;100.00;101041.13;7370925;19;20014;-71
2022/09/30 11:50:33;;;;;;;9.10;4.15;;;;;;;16.64;100.00;101032.44;7368588;19;20014;-71
2022/09/30 11:53:15;;;;;;;7.32;3.60;;;;;;;16.60;100.00;101036.00;7368195;19;20069;-68
2022/09/30 11:56:06;;;;;;;7.75;3.60;;;;;;;16.42;100.00;101033.50;7371158;19;20046;-68